Time;durP1;ratioP1;P1;durP2;ratioP2;P2;SDS_P1;SDS_P2;PMS_P1;PMS_P2;Temp;Humidity;BMP_temperature;BMP_pressure;BME280_temperature;BME280_humidity;BME280_pressure;Samples;Min_cycle;Max_cycle;Signal;HPM_P1;HPM_P2
2023/04/10 00:00:55;;;;;;;12.17;9.27;;;;;;;5.44;64.65;96101.59;6042476;23;20189;-81
2023/04/10 00:03:21;;;;;;;10.63;9.40;;;;;;;5.43;65.36;96099.13;6067458;23;20142;-81
2023/04/10 00:05:47;;;;;;;11.43;9.13;;;;;;;5.45;65.17;96099.84;6066306;23;20157;-81
2023/04/10 00:08:12;;;;;;;12.50;9.53;;;;;;;5.33;65.38;96099.75;6091600;23;20164;-80
2023/04/10 00:10:38;;;;;;;10.53;8.80;;;;;;;5.31;65.39;96103.34;6069411;23;20181;-81
2023/04/10 00:13:04;;;;;;;12.13;9.60;;;;;;;5.35;65.34;96097.88;6069428;23;20185;-81
2023/04/10 00:15:29;;;;;;;13.23;10.23;;;;;;;5.30;65.58;96099.94;6069703;23;20169;-82
2023/04/10 00:17:54;;;;;;;11.17;9.27;;;;;;;5.27;65.59;96094.97;6070331;23;20181;-82
2023/04/10 00:20:21;;;;;;;12.23;9.43;;;;;;;5.34;65.67;96092.84;6093799;23;20366;-83
2023/04/10 00:22:47;;;;;;;10.60;8.90;;;;;;;5.29;66.03;96075.09;6069883;23;20149;-83
2023/04/10 00:25:12;;;;;;;10.10;8.50;;;;;;;5.31;65.54;96082.75;6093243;23;20178;-83
2023/04/10 00:27:37;;;;;;;12.27;9.23;;;;;;;5.30;65.69;96075.91;6092476;23;20165;-83
2023/04/10 00:30:03;;;;;;;12.93;9.33;;;;;;;5.32;65.97;96077.50;6052826;23;20201;-80
2023/04/10 00:32:28;;;;;;;12.03;9.37;;;;;;;5.29;65.87;96072.53;6066458;23;20189;-80
2023/04/10 00:34:53;;;;;;;13.70;9.70;;;;;;;5.34;65.84;96070.47;6041540;23;20628;-81
2023/04/10 00:37:19;;;;;;;12.30;9.43;;;;;;;5.27;65.55;96071.81;6065652;23;20161;-80
2023/04/10 00:39:44;;;;;;;11.03;8.80;;;;;;;5.29;65.53;96067.38;6046042;23;20195;-80
2023/04/10 00:42:10;;;;;;;10.97;8.90;;;;;;;5.22;66.01;96066.16;6068232;23;20539;-80
2023/04/10 00:44:36;;;;;;;11.70;9.03;;;;;;;5.13;66.58;96069.34;6042853;23;20168;-84
2023/04/10 00:47:04;;;;;;;13.17;10.13;;;;;;;5.18;66.11;96069.03;6067462;23;20165;-81
2023/04/10 00:49:29;;;;;;;11.60;9.33;;;;;;;5.08;66.57;96076.53;6066941;23;20537;-80
2023/04/10 00:51:55;;;;;;;12.60;9.50;;;;;;;5.17;66.18;96081.06;6042790;23;20193;-81
2023/04/10 00:54:20;;;;;;;10.57;9.30;;;;;;;5.11;66.91;96078.91;6066607;23;20164;-83
2023/04/10 00:56:46;;;;;;;12.67;9.13;;;;;;;5.16;66.62;96084.59;6066566;23;20168;-84
2023/04/10 00:59:11;;;;;;;11.57;8.90;;;;;;;5.09;66.57;96080.75;6066769;23;20157;-81
2023/04/10 01:01:37;;;;;;;13.00;9.53;;;;;;;5.05;66.56;96076.75;6091020;23;20171;-81
2023/04/10 01:04:02;;;;;;;11.30;8.87;;;;;;;4.99;66.76;96072.00;6066955;23;20679;-81
2023/04/10 01:07:04;;;;;;;12.07;8.80;;;;;;;5.00;66.67;96076.22;6066481;23;20165;-81
2023/04/10 01:09:52;;;;;;;13.60;9.53;;;;;;;4.91;66.70;96079.38;6022181;23;20259;-81
2023/04/10 01:12:29;;;;;;;11.27;8.57;;;;;;;4.93;66.79;96070.63;6043688;23;20184;-81
2023/04/10 01:15:08;;;;;;;13.23;9.00;;;;;;;4.91;66.90;96071.66;6090531;23;20137;-81
2023/04/10 01:17:40;;;;;;;11.53;9.43;;;;;;;4.97;67.08;96073.84;6043453;23;20275;-81
2023/04/10 01:20:15;;;;;;;11.90;9.47;;;;;;;4.95;66.87;96068.00;6043407;23;20196;-81
2023/04/10 01:22:45;;;;;;;10.63;8.30;;;;;;;4.93;66.53;96065.50;6043359;23;20234;-81
2023/04/10 01:25:42;;;;;;;11.10;9.27;;;;;;;4.95;66.31;96060.25;6042845;23;20145;-83
2023/04/10 01:28:48;;;;;;;11.73;8.80;;;;;;;4.92;66.58;96048.41;6067163;23;20232;-81
2023/04/10 01:31:18;;;;;;;12.03;9.07;;;;;;;4.89;66.77;96058.09;6066832;23;20191;-81
2023/04/10 01:33:49;;;;;;;12.20;9.50;;;;;;;4.87;66.45;96065.09;6043061;23;20153;-82
2023/04/10 01:36:20;;;;;;;11.57;9.27;;;;;;;4.90;66.38;96062.31;6090134;23;20202;-82
2023/04/10 01:38:46;;;;;;;11.27;8.80;;;;;;;4.82;66.67;96070.53;6068084;23;20197;-81
2023/04/10 01:41:12;;;;;;;11.00;9.03;;;;;;;4.86;66.17;96071.13;6043753;23;20209;-82
2023/04/10 01:43:39;;;;;;;13.37;9.53;;;;;;;4.87;66.22;96073.63;6044399;23;20165;-81
2023/04/10 01:46:04;;;;;;;10.80;8.53;;;;;;;4.87;65.93;96071.06;6067837;23;20545;-82
2023/04/10 01:48:30;;;;;;;12.77;9.00;;;;;;;4.83;66.16;96078.13;6067550;23;20210;-82
2023/04/10 01:50:55;;;;;;;12.67;8.73;;;;;;;4.88;66.21;96082.16;6042968;23;20246;-83
2023/04/10 01:53:22;;;;;;;12.60;8.60;;;;;;;4.87;66.52;96067.66;6068262;23;20167;-83
2023/04/10 01:55:48;;;;;;;14.00;9.37;;;;;;;4.88;65.67;96074.44;6066947;23;20172;-81
2023/04/10 01:58:14;;;;;;;11.73;8.50;;;;;;;4.87;65.82;96075.38;6066934;23;20157;-82
2023/04/10 02:00:40;;;;;;;10.03;8.27;;;;;;;4.86;65.43;96071.13;6066983;23;20181;-82
2023/04/10 02:03:06;;;;;;;10.33;8.67;;;;;;;4.88;65.71;96064.97;6089980;23;20588;-81
2023/04/10 02:05:40;;;;;;;10.83;8.43;;;;;;;4.88;65.23;96064.16;6065784;23;20190;-82
2023/04/10 02:08:11;;;;;;;10.50;8.23;;;;;;;4.91;65.60;96058.81;6066128;23;20603;-81
2023/04/10 02:10:44;;;;;;;11.73;8.57;;;;;;;4.89;65.62;96069.19;6066387;23;20654;-81
2023/04/10 02:13:12;;;;;;;10.37;8.37;;;;;;;4.88;65.47;96064.16;6066674;23;20146;-81
2023/04/10 02:15:41;;;;;;;10.60;8.43;;;;;;;4.84;65.46;96061.75;6065853;23;20184;-81
2023/04/10 02:18:08;;;;;;;11.83;9.03;;;;;;;4.87;65.69;96070.22;6066457;23;20221;-82
2023/04/10 02:20:34;;;;;;;11.37;8.00;;;;;;;4.80;66.00;96068.06;6066054;23;20181;-82
2023/04/10 02:23:02;;;;;;;10.60;8.67;;;;;;;4.81;65.81;96066.31;6043178;23;20619;-82
2023/04/10 02:25:32;;;;;;;11.67;8.67;;;;;;;4.82;65.45;96066.19;6042330;23;20213;-82
2023/04/10 02:27:57;;;;;;;9.60;7.83;;;;;;;4.83;65.82;96054.97;6066700;23;20161;-81
2023/04/10 02:30:23;;;;;;;10.30;8.27;;;;;;;4.79;65.58;96063.84;6066664;23;20173;-81
2023/04/10 02:32:49;;;;;;;12.13;8.73;;;;;;;4.82;65.23;96055.06;6066589;23;20184;-82
2023/04/10 02:35:14;;;;;;;11.03;8.77;;;;;;;4.82;65.22;96063.63;6042090;23;20551;-83
2023/04/10 02:37:41;;;;;;;11.47;8.67;;;;;;;4.80;65.23;96056.94;6065632;23;20204;-81
2023/04/10 02:40:07;;;;;;;12.00;8.67;;;;;;;4.82;65.41;96057.66;6042880;23;20182;-82
2023/04/10 02:42:32;;;;;;;9.47;8.30;;;;;;;4.81;65.30;96056.81;6066624;23;20446;-83
2023/04/10 02:44:57;;;;;;;9.83;7.80;;;;;;;4.74;65.63;96054.75;6043367;23;20194;-81
2023/04/10 02:47:23;;;;;;;8.87;7.50;;;;;;;4.69;65.56;96056.81;6042776;23;20241;-80
2023/04/10 02:49:48;;;;;;;9.80;7.60;;;;;;;4.67;65.23;96056.88;6066504;23;20188;-83
2023/04/10 02:52:13;;;;;;;10.77;7.77;;;;;;;4.66;65.33;96047.53;6068010;23;20180;-81
2023/04/10 02:54:39;;;;;;;9.80;7.67;;;;;;;4.70;65.33;96059.28;6066407;23;20166;-80
2023/04/10 02:57:04;;;;;;;9.57;7.80;;;;;;;4.68;64.82;96055.13;6066866;23;20212;-83
2023/04/10 02:59:30;;;;;;;9.23;7.27;;;;;;;4.68;64.71;96050.84;6066134;23;20241;-81
2023/04/10 03:01:55;;;;;;;9.97;7.17;;;;;;;4.73;64.46;96046.22;6091307;23;20161;-81
2023/04/10 03:04:21;;;;;;;11.00;7.33;;;;;;;4.74;64.76;96044.47;6042865;23;20866;-80
2023/04/10 03:06:46;;;;;;;10.73;7.37;;;;;;;4.69;64.23;96044.78;6041939;23;20165;-81
2023/04/10 03:09:11;;;;;;;9.67;7.73;;;;;;;4.70;64.47;96036.13;6042143;23;20165;-83
2023/04/10 03:11:37;;;;;;;9.80;7.87;;;;;;;4.74;64.30;96045.28;6042468;23;20212;-82
2023/04/10 03:14:03;;;;;;;9.60;7.13;;;;;;;4.76;63.94;96043.44;6068248;23;20493;-82
2023/04/10 03:16:28;;;;;;;9.40;6.93;;;;;;;4.72;64.11;96042.00;6089561;23;20165;-83
2023/04/10 03:18:54;;;;;;;10.30;7.40;;;;;;;4.72;64.16;96034.28;6067042;23;20153;-83
2023/04/10 03:21:20;;;;;;;8.93;7.10;;;;;;;4.74;64.20;96041.88;6066901;23;20183;-84
2023/04/10 03:23:45;;;;;;;9.53;7.57;;;;;;;4.75;64.42;96034.06;6066959;23;20232;-83
2023/04/10 03:26:10;;;;;;;8.87;7.10;;;;;;;4.78;64.45;96025.34;6065628;23;20216;-83
2023/04/10 03:28:36;;;;;;;9.27;7.03;;;;;;;4.77;64.00;96023.66;6042159;23;20228;-82
2023/04/10 03:31:02;;;;;;;9.00;7.03;;;;;;;4.74;64.10;96029.03;6067598;23;20613;-82
2023/04/10 03:33:28;;;;;;;9.27;7.30;;;;;;;4.75;63.95;96033.25;6041905;23;20162;-82
2023/04/10 03:35:53;;;;;;;9.57;7.60;;;;;;;4.71;64.35;96026.66;6087549;23;20213;-83
2023/04/10 03:38:19;;;;;;;8.60;7.23;;;;;;;4.76;64.04;96033.13;6042064;23;20198;-83
2023/04/10 03:40:44;;;;;;;10.50;7.17;;;;;;;4.74;64.33;96029.03;6066206;23;20176;-82
2023/04/10 03:43:10;;;;;;;10.30;7.33;;;;;;;4.71;64.36;96024.09;6042632;23;20167;-83
2023/04/10 03:45:35;;;;;;;8.90;7.43;;;;;;;4.67;64.57;96023.44;6042342;23;20165;-83
2023/04/10 03:48:00;;;;;;;8.87;6.43;;;;;;;4.64;64.10;96018.50;6090482;23;20169;-82
2023/04/10 03:50:26;;;;;;;9.13;6.70;;;;;;;4.60;64.34;96017.06;6041094;23;20197;-82
2023/04/10 03:52:51;;;;;;;7.77;6.80;;;;;;;4.61;64.67;96008.44;6065550;23;20192;-81
2023/04/10 03:55:17;;;;;;;8.40;6.83;;;;;;;4.61;64.59;96003.28;6040706;23;20156;-81
2023/04/10 03:57:44;;;;;;;9.83;7.60;;;;;;;4.63;63.95;95998.84;6065368;23;20619;-82
2023/04/10 04:00:11;;;;;;;7.80;6.63;;;;;;;4.62;64.13;95997.22;6065299;23;20305;-82
2023/04/10 04:02:36;;;;;;;9.33;6.73;;;;;;;4.65;63.76;95997.00;6041438;23;20166;-82
2023/04/10 04:05:01;;;;;;;8.83;6.57;;;;;;;4.66;64.05;95988.34;6040577;23;20167;-82
2023/04/10 04:07:26;;;;;;;9.23;6.87;;;;;;;4.64;63.94;95992.78;6041221;23;20157;-82
2023/04/10 04:09:54;;;;;;;9.27;7.23;;;;;;;4.62;64.38;95992.06;6089027;23;20188;-82
2023/04/10 04:12:19;;;;;;;8.80;6.87;;;;;;;4.63;63.92;95992.88;6044193;23;20714;-81
2023/04/10 04:14:44;;;;;;;9.77;7.07;;;;;;;4.57;64.67;95991.53;6078430;23;20153;-82
2023/04/10 04:17:10;;;;;;;7.47;6.13;;;;;;;4.53;64.38;95993.50;6067498;23;20160;-83
2023/04/10 04:19:35;;;;;;;10.97;7.80;;;;;;;4.50;64.73;95987.72;6117851;23;20188;-84
2023/04/10 04:22:00;;;;;;;9.23;7.77;;;;;;;4.47;64.92;95990.50;6085238;23;20153;-83
2023/04/10 04:24:26;;;;;;;11.27;7.43;;;;;;;4.40;65.08;95984.09;6071607;23;20163;-83
2023/04/10 04:26:51;;;;;;;9.77;7.50;;;;;;;4.39;64.82;95990.16;6070355;23;20188;-84
2023/04/10 04:29:16;;;;;;;9.50;6.63;;;;;;;4.32;65.44;95988.91;6045446;23;20153;-83
2023/04/10 04:31:42;;;;;;;9.13;6.73;;;;;;;4.34;65.24;95987.91;6045046;23;20179;-84
2023/04/10 04:34:07;;;;;;;8.63;6.67;;;;;;;4.34;64.85;95995.63;6044440;23;20168;-82
2023/04/10 04:36:32;;;;;;;9.23;7.50;;;;;;;4.40;65.04;95992.63;6067066;23;20164;-83
2023/04/10 04:38:58;;;;;;;9.80;7.07;;;;;;;4.43;64.73;95989.06;6069778;23;20157;-83
2023/04/10 04:41:23;;;;;;;9.87;7.60;;;;;;;4.44;65.09;95994.09;6093227;23;20188;-82
2023/04/10 04:43:50;;;;;;;10.00;7.87;;;;;;;4.46;64.63;95994.81;6044000;23;20157;-82
2023/04/10 04:46:15;;;;;;;9.17;7.43;;;;;;;4.46;65.28;96012.81;6091021;23;20164;-82
2023/04/10 04:48:40;;;;;;;9.73;7.83;;;;;;;4.46;64.79;96014.56;6044061;23;20165;-83
2023/04/10 04:51:06;;;;;;;8.67;6.97;;;;;;;4.46;65.03;96014.56;6067723;23;20195;-82
2023/04/10 04:53:31;;;;;;;10.53;7.87;;;;;;;4.48;64.92;96012.72;6067789;23;20160;-83
2023/04/10 04:55:57;;;;;;;9.67;7.27;;;;;;;4.45;65.31;96008.59;6091112;23;20164;-83
2023/04/10 04:58:23;;;;;;;10.07;8.17;;;;;;;4.50;64.76;96005.72;6045120;23;20168;-83
2023/04/10 05:00:49;;;;;;;9.40;7.23;;;;;;;4.55;64.90;96008.81;6068469;23;20793;-82
2023/04/10 05:03:14;;;;;;;8.37;6.90;;;;;;;4.59;64.67;96012.00;6068621;23;20157;-83
2023/04/10 05:05:39;;;;;;;9.23;7.30;;;;;;;4.64;64.54;96018.50;6068144;23;20168;-82
2023/04/10 05:08:05;;;;;;;10.03;7.13;;;;;;;4.59;64.20;96007.69;6068102;23;20173;-82
2023/04/10 05:10:30;;;;;;;10.03;7.13;;;;;;;4.66;64.20;96005.53;6043708;23;20185;-82
2023/04/10 05:12:55;;;;;;;10.30;7.47;;;;;;;4.77;63.95;95998.78;6067388;23;20516;-81
2023/04/10 05:15:21;;;;;;;11.30;7.57;;;;;;;5.02;62.90;95997.13;6090583;23;20188;-82
2023/04/10 05:17:49;;;;;;;9.70;7.40;;;;;;;5.06;62.93;96001.16;6043792;23;20322;-81
2023/04/10 05:20:15;;;;;;;8.80;7.20;;;;;;;5.13;62.51;96010.13;6067514;23;20213;-82
2023/04/10 05:22:40;;;;;;;9.67;7.10;;;;;;;5.25;62.11;95998.19;6068472;23;20644;-82
2023/04/10 05:25:06;;;;;;;10.00;7.33;;;;;;;5.33;61.69;96001.06;6066569;23;20193;-82
2023/04/10 05:27:31;;;;;;;8.50;6.97;;;;;;;5.38;61.72;96009.28;6043453;23;20219;-82
2023/04/10 05:29:56;;;;;;;10.07;7.07;;;;;;;5.47;60.91;96008.63;6043109;23;20188;-82
2023/04/10 05:32:22;;;;;;;11.33;7.77;;;;;;;5.60;60.03;96011.22;6068493;23;20177;-83
2023/04/10 05:34:47;;;;;;;8.47;6.83;;;;;;;5.56;60.17;96009.75;6043544;23;20193;-82
2023/04/10 05:37:12;;;;;;;8.33;6.70;;;;;;;5.62;60.37;96010.19;6066707;23;20584;-82
2023/04/10 05:39:37;;;;;;;8.50;6.40;;;;;;;5.74;60.02;96028.28;6069423;23;20203;-83
2023/04/10 05:42:03;;;;;;;10.33;7.10;;;;;;;5.80;59.71;96014.97;6044608;23;20232;-83
2023/04/10 05:44:29;;;;;;;8.97;7.33;;;;;;;5.90;58.98;96013.41;6045382;23;20161;-83
2023/04/10 05:46:55;;;;;;;8.70;6.30;;;;;;;5.95;59.07;96012.19;6091619;23;20168;-82
2023/04/10 05:49:20;;;;;;;8.73;6.63;;;;;;;6.07;58.34;96013.06;6044286;23;20180;-84
2023/04/10 05:51:49;;;;;;;7.70;6.37;;;;;;;6.16;57.55;96009.00;6068309;23;20166;-83
2023/04/10 05:54:17;;;;;;;7.70;6.17;;;;;;;6.13;57.28;96016.97;6092538;23;20295;-82
2023/04/10 05:56:42;;;;;;;7.90;6.37;;;;;;;6.18;56.62;96014.88;6043825;23;20160;-83
2023/04/10 05:59:07;;;;;;;7.00;5.67;;;;;;;6.46;56.61;96014.56;6068460;23;20157;-82
2023/04/10 06:01:33;;;;;;;7.80;6.10;;;;;;;6.59;56.20;96013.66;6069054;23;20160;-84
2023/04/10 06:03:58;;;;;;;8.20;6.30;;;;;;;6.52;56.08;96026.19;6045086;23;20165;-84
2023/04/10 06:06:25;;;;;;;8.37;5.73;;;;;;;6.65;55.76;96018.38;6044391;23;20164;-83
2023/04/10 06:08:50;;;;;;;7.97;6.10;;;;;;;6.60;56.13;96010.16;6069111;23;20153;-84
2023/04/10 06:11:16;;;;;;;7.83;6.57;;;;;;;6.65;56.03;96014.06;6068078;23;20184;-82
2023/04/10 06:13:41;;;;;;;7.83;6.03;;;;;;;6.59;55.89;96013.66;6068575;23;20153;-83
2023/04/10 06:16:07;;;;;;;7.17;5.67;;;;;;;6.73;55.11;96016.06;6092109;23;20285;-84
2023/04/10 06:18:32;;;;;;;7.20;5.73;;;;;;;6.90;54.87;96002.75;6068897;23;20154;-82
2023/04/10 06:21:00;;;;;;;7.17;5.77;;;;;;;6.79;54.50;96010.44;6068204;23;20185;-84
2023/04/10 06:23:26;;;;;;;8.07;6.00;;;;;;;6.91;54.21;96009.56;6046445;23;20165;-83
2023/04/10 06:25:52;;;;;;;7.27;6.33;;;;;;;7.04;53.81;96012.84;6068580;23;20228;-83
2023/04/10 06:28:17;;;;;;;7.97;6.50;;;;;;;6.96;54.28;96007.44;6044111;23;20169;-84
2023/04/10 06:30:42;;;;;;;7.63;6.33;;;;;;;7.06;53.75;96010.97;6068004;23;20639;-83
2023/04/10 06:33:07;;;;;;;7.53;5.93;;;;;;;7.05;53.78;96006.75;6067332;23;20173;-83
2023/04/10 06:35:33;;;;;;;8.77;6.20;;;;;;;7.12;53.51;96012.28;6043078;23;20161;-82
2023/04/10 06:37:58;;;;;;;9.20;6.53;;;;;;;7.02;53.53;96001.00;6067194;23;20184;-82
2023/04/10 06:40:24;;;;;;;7.17;5.53;;;;;;;7.04;53.60;95999.94;6042622;23;20181;-82
2023/04/10 06:42:50;;;;;;;7.20;5.67;;;;;;;7.16;52.85;96003.38;6066898;23;20245;-83
2023/04/10 06:45:15;;;;;;;6.50;5.60;;;;;;;7.25;53.37;95997.53;6041975;23;20172;-82
2023/04/10 06:47:40;;;;;;;6.87;5.97;;;;;;;7.14;53.06;95988.91;6090095;23;20507;-82
2023/04/10 06:50:06;;;;;;;7.07;5.63;;;;;;;7.27;52.56;95997.41;6042214;23;20193;-82
2023/04/10 06:52:31;;;;;;;6.30;5.47;;;;;;;7.33;53.15;95995.19;6065983;23;20269;-82
2023/04/10 06:54:57;;;;;;;7.73;5.63;;;;;;;7.36;52.74;95988.94;6065862;23;20533;-82
2023/04/10 06:57:22;;;;;;;7.33;5.97;;;;;;;7.58;52.01;95999.28;6066810;23;20603;-82
2023/04/10 06:59:47;;;;;;;5.80;5.20;;;;;;;7.52;52.11;95996.34;6041943;23;20185;-82
2023/04/10 07:02:12;;;;;;;6.40;5.53;;;;;;;7.55;51.20;95994.34;6042846;23;20193;-81
2023/04/10 07:04:38;;;;;;;6.90;5.43;;;;;;;7.80;50.86;95988.09;6067194;23;20154;-82
2023/04/10 07:07:04;;;;;;;6.07;4.40;;;;;;;8.00;51.24;95996.88;6066679;23;20145;-82
2023/04/10 07:09:30;;;;;;;7.83;5.87;;;;;;;7.82;50.19;96000.91;6068772;23;20183;-81
2023/04/10 07:11:55;;;;;;;6.77;5.00;;;;;;;7.80;50.24;96002.78;6067384;23;20259;-81
2023/04/10 07:14:21;;;;;;;5.90;5.20;;;;;;;7.87;49.70;96009.13;6042942;23;20165;-81
2023/04/10 07:16:47;;;;;;;6.30;5.00;;;;;;;8.05;49.40;96004.28;6067330;23;20473;-83
2023/04/10 07:19:13;;;;;;;7.47;5.23;;;;;;;8.06;49.53;96005.94;6043531;23;20161;-83
2023/04/10 07:21:38;;;;;;;7.37;5.40;;;;;;;8.02;49.17;96007.09;6066630;23;20149;-82
2023/04/10 07:24:03;;;;;;;6.13;5.10;;;;;;;8.09;49.15;96006.50;6043625;23;20157;-83
2023/04/10 07:26:29;;;;;;;6.63;4.70;;;;;;;8.21;49.70;96002.94;6042633;23;20184;-83
2023/04/10 07:28:54;;;;;;;5.87;4.93;;;;;;;8.32;49.46;96009.03;6069140;23;20157;-85
2023/04/10 07:31:19;;;;;;;5.70;4.90;;;;;;;8.44;49.61;95997.72;6042793;23;20535;-82
2023/04/10 07:33:45;;;;;;;7.17;5.53;;;;;;;8.52;49.73;95997.94;6067292;23;20172;-82
2023/04/10 07:36:11;;;;;;;6.07;5.10;;;;;;;8.49;49.29;96009.38;6042221;23;20157;-82
2023/04/10 07:38:37;;;;;;;5.33;4.83;;;;;;;8.57;49.41;96007.91;6066270;23;20469;-82
2023/04/10 07:41:03;;;;;;;6.23;4.97;;;;;;;8.56;48.37;95996.72;6090193;23;20177;-83
2023/04/10 07:43:28;;;;;;;5.33;4.80;;;;;;;8.79;48.26;96002.63;6042288;23;20165;-83
2023/04/10 07:45:54;;;;;;;5.10;4.60;;;;;;;8.97;47.85;95993.34;6066139;23;20172;-83
2023/04/10 07:48:20;;;;;;;5.53;4.90;;;;;;;9.05;47.47;95993.53;6066900;23;20165;-83
2023/04/10 07:50:45;;;;;;;4.90;4.40;;;;;;;9.15;47.81;95991.00;6090802;23;20193;-83
2023/04/10 07:53:10;;;;;;;5.50;4.63;;;;;;;9.25;47.46;95997.06;6043481;23;20189;-82
2023/04/10 07:55:40;;;;;;;4.83;4.30;;;;;;;9.36;46.34;95994.41;6090116;23;20203;-83
2023/04/10 07:58:06;;;;;;;6.33;4.70;;;;;;;9.56;44.94;96000.50;6091362;23;20165;-82
2023/04/10 08:00:32;;;;;;;5.47;4.07;;;;;;;9.70;45.45;95998.47;6066690;23;20205;-83
2023/04/10 08:02:57;;;;;;;4.97;4.47;;;;;;;9.89;44.75;96001.97;6067122;23;20162;-82
2023/04/10 08:05:22;;;;;;;4.83;4.33;;;;;;;10.01;45.27;95997.50;6042384;23;20165;-83
2023/04/10 08:07:48;;;;;;;5.77;4.57;;;;;;;10.01;44.15;95994.91;6043960;23;20153;-83
2023/04/10 08:10:13;;;;;;;4.37;3.97;;;;;;;9.99;43.65;96008.97;6091454;23;20177;-83
2023/04/10 08:12:38;;;;;;;4.60;4.10;;;;;;;9.98;43.36;96004.69;6091801;23;20276;-83
2023/04/10 08:15:04;;;;;;;5.10;4.40;;;;;;;9.89;43.89;95999.38;6065702;23;20165;-84
2023/04/10 08:17:29;;;;;;;4.93;4.23;;;;;;;10.02;43.17;95998.31;6044861;23;20161;-83
2023/04/10 08:19:55;;;;;;;4.43;3.80;;;;;;;10.27;43.91;96002.22;6091126;23;20185;-84
2023/04/10 08:22:20;;;;;;;4.27;3.87;;;;;;;10.32;43.15;96005.22;6067076;23;20160;-83
2023/04/10 08:24:45;;;;;;;4.80;4.17;;;;;;;10.27;44.20;96008.22;6042444;23;20200;-82
2023/04/10 08:27:11;;;;;;;5.03;4.37;;;;;;;10.42;43.42;96009.50;6042792;23;20157;-84
2023/04/10 08:29:36;;;;;;;5.30;4.40;;;;;;;10.37;43.77;96018.63;6090975;23;20658;-83
2023/04/10 08:32:01;;;;;;;5.47;4.33;;;;;;;10.58;43.01;96014.13;6043359;23;20177;-83
2023/04/10 08:34:27;;;;;;;4.60;4.10;;;;;;;10.43;43.09;96008.53;6042312;23;20168;-82
2023/04/10 08:36:53;;;;;;;5.00;4.10;;;;;;;10.88;43.34;96012.38;6065505;23;20169;-82
2023/04/10 08:39:18;;;;;;;4.40;4.00;;;;;;;10.69;42.97;96007.97;6067897;23;20154;-83
2023/04/10 08:41:44;;;;;;;5.40;4.20;;;;;;;11.26;42.70;96014.06;6089995;23;20165;-82
2023/04/10 08:44:09;;;;;;;4.60;3.73;;;;;;;11.17;42.68;96018.34;6043120;23;20165;-82
2023/04/10 08:46:35;;;;;;;5.33;4.50;;;;;;;11.21;42.67;96014.47;6042635;23;20166;-82
2023/04/10 08:49:02;;;;;;;3.90;3.50;;;;;;;11.60;41.87;96017.81;6091287;23;20164;-82
2023/04/10 08:51:31;;;;;;;4.10;3.70;;;;;;;11.59;42.06;96008.38;6068994;23;20644;-83
2023/04/10 08:54:05;;;;;;;4.53;3.97;;;;;;;11.53;41.14;96014.13;6068820;23;20149;-84
2023/04/10 08:56:32;;;;;;;4.40;3.97;;;;;;;11.75;41.90;96014.72;6036347;23;20149;-83
2023/04/10 08:58:57;;;;;;;4.47;4.07;;;;;;;11.93;40.78;96014.81;6070178;23;20168;-85
2023/04/10 09:01:24;;;;;;;4.40;4.00;;;;;;;11.85;41.20;96011.19;6047662;23;20174;-85
2023/04/10 09:03:50;;;;;;;4.10;3.67;;;;;;;11.96;40.71;96007.56;6094971;23;20189;-85
2023/04/10 09:06:15;;;;;;;3.67;3.37;;;;;;;12.09;40.24;96002.00;6071465;23;20387;-85
2023/04/10 09:08:40;;;;;;;4.10;3.60;;;;;;;12.23;40.35;95993.69;6096204;23;20157;-85
2023/04/10 09:11:06;;;;;;;3.60;3.30;;;;;;;12.17;40.99;96002.09;6070697;23;20165;-85
2023/04/10 09:13:37;;;;;;;3.33;3.03;;;;;;;11.99;38.66;95994.25;6046690;23;20184;-85
2023/04/10 09:16:02;;;;;;;5.47;3.73;;;;;;;12.08;40.23;95993.38;6068645;23;20186;-84
2023/04/10 09:18:48;;;;;;;4.33;3.60;;;;;;;12.42;39.76;95990.97;6038775;23;20213;-84
2023/04/10 09:21:19;;;;;;;4.07;3.63;;;;;;;12.58;40.55;95984.28;6068393;23;20197;-82
2023/04/10 09:23:45;;;;;;;3.40;3.10;;;;;;;12.71;37.74;95980.31;6046396;23;20150;-85
2023/04/10 09:26:27;;;;;;;3.37;3.07;;;;;;;12.77;37.47;95987.53;6070611;23;20549;-83
2023/04/10 09:29:00;;;;;;;2.53;2.33;;;;;;;12.91;36.72;95977.56;6020796;23;20168;-83
2023/04/10 09:31:29;;;;;;;3.07;2.83;;;;;;;12.87;35.67;95976.22;6019266;23;20206;-83
2023/04/10 09:34:13;;;;;;;3.20;3.00;;;;;;;13.05;36.18;95969.16;6067090;23;20165;-83
2023/04/10 09:36:42;;;;;;;2.70;2.50;;;;;;;13.07;36.20;95969.84;6066211;23;20160;-82
2023/04/10 09:39:10;;;;;;;3.90;2.60;;;;;;;13.28;35.94;95972.94;6066244;23;20508;-82
2023/04/10 09:41:49;;;;;;;2.40;2.20;;;;;;;13.48;34.31;95973.56;6043090;23;20588;-82
2023/04/10 09:44:17;;;;;;;2.50;2.30;;;;;;;13.60;34.77;95961.88;6019338;23;20157;-82
2023/04/10 09:46:42;;;;;;;2.77;2.30;;;;;;;13.56;34.07;95970.16;6018521;23;20502;-83
2023/04/10 09:49:08;;;;;;;2.37;2.17;;;;;;;13.90;33.35;95949.28;6018362;23;20162;-85
2023/04/10 09:51:34;;;;;;;2.10;2.00;;;;;;;13.87;34.59;95957.44;6041976;23;20169;-81
2023/04/10 09:54:01;;;;;;;1.90;1.80;;;;;;;13.99;33.09;95945.72;6066584;23;20157;-81
2023/04/10 09:56:28;;;;;;;2.50;2.30;;;;;;;14.17;33.40;95946.41;6017439;23;20176;-80
2023/04/10 09:58:57;;;;;;;2.67;2.40;;;;;;;13.96;33.26;95934.75;6066194;23;20185;-80
2023/04/10 10:01:24;;;;;;;2.57;2.10;;;;;;;14.03;33.38;95930.53;6042628;23;20181;-83
2023/04/10 10:03:49;;;;;;;2.60;2.20;;;;;;;14.23;33.14;95931.91;6043059;23;20154;-83
2023/04/10 10:06:15;;;;;;;2.33;2.13;;;;;;;14.07;33.37;95931.88;6044100;23;20157;-84
2023/04/10 10:08:40;;;;;;;2.27;2.07;;;;;;;14.47;33.01;95918.06;6044292;23;20153;-83
2023/04/10 10:11:08;;;;;;;2.40;2.10;;;;;;;14.48;33.01;95924.91;6066776;23;20702;-82
2023/04/10 10:13:47;;;;;;;2.13;2.03;;;;;;;14.78;33.46;95923.47;6067097;23;20161;-83
2023/04/10 10:16:41;;;;;;;2.30;2.10;;;;;;;14.70;31.56;95926.91;6065638;23;20205;-84
2023/04/10 10:19:12;;;;;;;2.30;2.00;;;;;;;14.79;32.34;95914.66;6039863;23;20168;-82
2023/04/10 10:21:38;;;;;;;2.23;2.03;;;;;;;14.83;31.92;95915.13;6043752;23;20222;-82
2023/04/10 10:24:07;;;;;;;1.67;1.57;;;;;;;15.05;31.74;95905.78;6018912;23;20165;-82
2023/04/10 10:26:34;;;;;;;2.30;2.10;;;;;;;15.02;30.69;95912.19;6065417;23;20161;-83
2023/04/10 10:29:05;;;;;;;2.17;1.97;;;;;;;15.33;31.97;95904.41;6042138;23;20160;-82
2023/04/10 10:31:32;;;;;;;2.80;2.10;;;;;;;15.43;31.09;95902.41;6065561;23;20188;-83
2023/04/10 10:34:01;;;;;;;2.07;1.87;;;;;;;15.35;31.03;95896.38;6041953;23;20188;-83
2023/04/10 10:36:27;;;;;;;2.83;2.27;;;;;;;15.11;30.80;95903.34;6041526;23;20164;-83
2023/04/10 10:39:29;;;;;;;2.23;2.03;;;;;;;15.08;30.33;95905.44;6018560;23;20608;-83
2023/04/10 10:42:23;;;;;;;2.47;2.00;;;;;;;14.97;31.64;95904.81;6043228;23;20142;-83
2023/04/10 10:44:53;;;;;;;2.20;2.00;;;;;;;15.20;30.99;95898.91;6019677;23;20161;-84
2023/04/10 10:47:22;;;;;;;2.30;2.03;;;;;;;15.40;29.31;95907.19;6019218;23;20174;-82
2023/04/10 10:49:50;;;;;;;2.50;2.30;;;;;;;15.36;31.43;95905.88;6072304;23;20323;-82
2023/04/10 10:52:15;;;;;;;2.43;2.13;;;;;;;15.21;30.61;95898.72;6065936;23;20646;-83
2023/04/10 10:54:40;;;;;;;2.30;2.10;;;;;;;15.28;30.44;95894.47;6041410;23;20169;-83
2023/04/10 10:57:44;;;;;;;2.37;2.17;;;;;;;15.32;30.81;95896.72;6089780;23;20167;-83
2023/04/10 11:00:10;;;;;;;2.70;2.50;;;;;;;15.09;31.41;95891.38;6090029;23;20184;-83
2023/04/10 11:02:35;;;;;;;2.50;2.30;;;;;;;15.13;31.34;95887.47;6041669;23;20691;-83
2023/04/10 11:05:00;;;;;;;2.23;2.07;;;;;;;15.32;31.76;95888.88;6065998;23;20157;-84
2023/04/10 11:08:06;;;;;;;1.70;1.60;;;;;;;15.63;30.49;95883.72;6068317;23;20604;-83
2023/04/10 11:11:06;;;;;;;2.17;1.97;;;;;;;15.53;30.98;95882.09;6065249;23;20264;-83
2023/04/10 11:13:36;;;;;;;2.40;2.20;;;;;;;15.50;30.73;95877.19;6041792;23;20165;-83
2023/04/10 11:16:04;;;;;;;2.50;2.30;;;;;;;15.71;29.78;95873.22;6039996;23;20584;-82
2023/04/10 11:18:44;;;;;;;1.80;1.70;;;;;;;15.94;31.13;95871.44;6066787;23;20634;-83
2023/04/10 11:21:17;;;;;;;2.87;2.07;;;;;;;15.67;29.50;95874.53;6066726;23;20232;-83
2023/04/10 11:23:48;;;;;;;2.67;2.13;;;;;;;15.64;29.31;95872.28;6066382;23;20179;-82
2023/04/10 11:26:38;;;;;;;1.70;1.60;;;;;;;16.15;28.81;95863.78;6065868;23;20505;-83
2023/04/10 11:29:18;;;;;;;2.13;1.93;;;;;;;16.11;29.39;95866.94;6067826;23;20160;-84
2023/04/10 11:31:44;;;;;;;2.07;1.87;;;;;;;16.01;29.95;95876.81;6066882;23;20172;-83
2023/04/10 11:34:10;;;;;;;2.57;2.10;;;;;;;16.09;30.28;95864.50;6065000;23;20217;-83
2023/04/10 11:36:40;;;;;;;2.27;2.07;;;;;;;15.89;29.59;95867.72;6041014;23;20212;-83
2023/04/10 11:39:08;;;;;;;1.70;1.60;;;;;;;16.23;30.40;95865.53;6065198;23;20161;-83